All Sets

Shortcodes are used by Gatherer in naming the set symbols. Product Codes are the "official" 3 letter code (however the shortcodes were likely actually used and the 3 letter product codes only created retrocatively. As 3 letter codes are not used by gatherer and do not provide space for alternate codes like the duel deck anthology sets, we typically use the shortcode.

This list can be downloaded as JSON.

SymbolShortcodeNameRelease DateCategoryCodenameProduct CodeTotalCommonUncommonRareMythic RareBasic LandOther
GK2_AZORIUGK2_AZORIUGuild Kit: Azorius2019-02-15SupplementalGK2162 6 84 48 12 120
GK2_GRUULGK2_GRUULGuild Kit: Gruul2019-02-15SupplementalGK2162 36 36 72 6 120
GK2_ORZHOVGK2_ORZHOVGuild Kit: Orzhov2019-02-15SupplementalGK2144 12 66 48 6 120
GK2_RAKDOSGK2_RAKDOSGuild Kit: Rakdos2019-02-15SupplementalGK2168 42 48 42 24 120
GK2_SIMICGK2_SIMICGuild Kit: Simic2019-02-15SupplementalGK2162 18 60 66 6 120
RNARNARavnica Allegiance2019-01-25ExpansionMeatballsRNA2977 1239 898 601 194 450
MPS_RNAMPS_RNARavnica Allegiance Mythic Edition2019-01-24SupplementalMED8000 800
UMAUMAUltimate Masters2018-12-07SupplementalUMA508 202 160 106 4000
UMA_BOXUMA_BOXUltimate Box Toppers2018-12-07SupplementalUMA00000040
GNTGNTGame Night2018-11-16SupplementalGNT68 18 25 10 5 100
G18G18Gift Pack2018-11-16SupplementalG18500 5000
GRNGRNGuilds of Ravnica2018-10-05ExpansionSpaghettiGRN3003 1243 902 605 198 550
MPS_GRNMPS_GRNGuilds of Ravnica Mythic Edition2018-10-03SupplementalMED8000 800
GK1_BOROSGK1_BOROSGuild Kit: Boros2018-09-29SupplementalGK1150 30 48 54 6 120
GK1_DIMIRGK1_DIMIRGuild Kit: Dimir2018-09-29SupplementalGK1150 18 60 54 6 120
GK1_GOLGARGK1_GOLGARGuild Kit: Golgari2018-09-29SupplementalGK1162 42 42 54 12 120
GK1_IZZETGK1_IZZETGuild Kit: Izzet2018-09-29SupplementalGK1144 24 54 540 120
GK1_SELESNGK1_SELESNGuild Kit: Selesnya2018-09-29SupplementalGK1156 42 42 48 12 120
C18C18Commander 20182018-08-10SupplementalC182149 469 609 826 140 1057
M19M19Core Set 20192018-07-13CoreSaladM193454 1353 946 693 242 2200
GS1GS1Global Series: Jiang Yanggu and Mu Yanling2018-06-22SupplementalGS180 50 10 8 4 80
SS1SS1Signature Spellbook: Jace2018-06-15SupplementalSS1800 7 100
CM2CM2Commander Anthology Volume II2018-06-09SupplementalCM2312 56 92 111 19 340
BBDBBDBattlebond2018-06-08SupplementalBBD768 303 240 159 51 150
DOMDOMDominaria2018-04-27ExpansionSoupDOM3080 1155 902 616 187 2200
DDUDDUDuel Decks: Elves vs. Inventors2018-04-06SupplementalDDU152 62 38 32 4 160
A25A25Masters 252018-03-16SupplementalA25747 303 240 159 4500
RIXRIXRivals of Ixalan2018-01-19ExpansionEggsRIX2255 803 682 550 165 5511
J18J18Judge Promos 20182018-01-01PromoJ180000000
USTUSTUnstable2017-12-08SupplementalQuicksilverUST268 97 90 61 15 50
E02E02Explorers of Ixalan2017-11-24ExpansionE0247 11 19 15 200
V17V17From the Vault: Transform2017-11-24SupplementalV1715000 1500
IMAIMAIconic Masters2017-11-17SupplementalIMA747 303 240 159 4500
DDTDDTDuel Decks: Merfolk vs. Goblins2017-11-10SupplementalDDT126 34 36 36 4 160
XLNXLNIxalan2017-09-29ExpansionHamXLN3179 1155 902 715 187 2200
HTRHTRHeroes of the Realm2017-09-20PromoHTR0000000
H17H17HASCON 20172017-09-08PromoH170000000
C17C17Commander 20172017-08-25SupplementalC172163 308 644 938 168 1050
HOUHOUHour of Devastation2017-07-14ExpansionLaughsHOU2299 814 682 484 154 1650
E01E01Archenemy: Nicol Bolas2017-06-16ExpansionAR2126 50 27 31 8 100
CMACMACommander Anthology2017-06-09SupplementalCMA320 69 108 92 15 360
AKHAKHAmonkhet2017-04-28ExpansionBarrelAKH3157 1243 902 605 187 2200
MPS_AKHMPS_AKHMasterpiece Series: Amonkhet Invocations2017-04-27Promo27000000054
W17W17Welcome Deck 20172017-04-15CoreW17330 220 55 55000
DDSDDSDuel Decks: Mind vs. Might2017-03-31SupplementalDDS130 40 24 38 4 240
MM3MM3Modern Masters 2017 Edition2017-03-17SupplementalMM3747 303 240 159 4500
AERAERAether Revolt2017-01-20ExpansionStockAER2134 814 682 484 15400
J17J17Judge Promos 20172017-01-01PromoJ170000000
PCAPCAPlanechase Anthology2016-11-25SupplementalPCA242 133 52 28 4 250
C16C16Commander 20162016-11-11SupplementalC162808 344 744 1352 248 1200
KLDKLDKaladesh2016-09-30ExpansionLockKLD3014 1155 902 605 187 1650
MPS_KLDMPS_KLDMasterpiece Series: Kaladesh Inventions2016-09-29Promo25700000054
PZ2PZ2Magic Online Treasure Chest2016-09-29SupplementalPZ200000075
PZ1PZ1Legendary Cube2016-09-28SupplementalPZ1000000149
DDRDDRDuel Decks: Nissa vs. Ob Nixilis2016-09-02SupplementalDDR150 74 32 20 4 200
CN2CN2Conspiracy: Take the Crown2016-08-26SupplementalCN2666 270 201 150 4502
V16V16From the Vault: Lore2016-08-19SupplementalV1616000 1600
EMNEMNEldritch Moon2016-07-22ExpansionFearsEMN2244 814 770 506 15400
EMAEMAEternal Masters2016-06-10SupplementalJitterbugEMA747 303 240 159 4502
SOISOIShadows over Innistrad2016-04-08ExpansionTearsSOI3260 1155 1100 642 198 1650
W16W16Welcome Deck 20162016-03-30CoreW16176 66 55 55000
MTGOMTGOMagic Online Promos2016-03-02SupplementalpMO00000010
DDQDDQDuel Decks: Blessed vs. Cursed2016-02-26SupplementalDDQ160 62 50 20 4 240
OGWOGWOath of the Gatewatch2016-01-22ExpansionSweatOGW2046 792 660 462 13200
J16J16Judge Promos 20162016-01-01PromoJ160000000
C15C15Commander 20152015-11-13SupplementalC152399 469 700 945 145 1400
EXPEXPZendikar Expeditions2015-10-03PromoEXP45000 4500
BFZBFZBattle for Zendikar2015-10-02ExpansionBloodBFZ3101 1111 880 583 165 3620
DDPDDPDuel Decks: Zendikar vs. Eldrazi2015-08-28SupplementalDDP160 70 42 20 4 240
V15V15From the Vault: Angels2015-08-21SupplementalV1515000 1500
CP3CP3Magic Origins Clash Pack2015-07-18SupplementalCP360 3 3006
ORIORIMagic Origins2015-07-17ExpansionORI3168 1188 924 660 176 2200
MM2MM2Modern Masters (2015 Edition)2015-05-22SupplementalMM2747 303 240 159 4500
TPRTPRTempest Remastered2015-05-06ExpansionTPR269 101 80 53 15 200
DTKDTKDragons of Tarkir2015-03-27ExpansionLouieDTK2904 1111 880 583 165 1650
DDODDODuel Decks: Elspeth vs. Kiora2015-02-27SupplementalDDO134 64 26 20 4 200
CP2CP2Fate Reforged Clash Pack2015-01-24SupplementalCP2600 6000
FRFFRFFate Reforged2015-01-23ExpansionDeweyFRF2035 770 660 385 110 1100
UFPUFPUgin's Fate Promos2015-01-19PromoUFP286 110 88 77 1100
J15J15Judge Promos 20152015-01-01PromoJ150000000
DD3_GVLDD3_GVLDuel Decks Anthology: Garruk vs. Liliana2014-12-08Supplementaln/a63 28 19 6 2 80
DD3_DVDDD3_DVDDuel Decks Anthology: Divine vs. Demonic2014-12-07Supplementaln/a62 20 26 6 2 80
DD3_JVCDD3_JVCDuel Decks Anthology: Jace vs. Chandra2014-12-06Supplementaln/a62 25 21 6 2 80
DD3_EVGDD3_EVGDuel Decks Anthology: Elves vs. Goblins2014-12-05Supplementaln/a62 24 22 80 80
C14C14Commander 20142014-11-07SupplementalC142359 385 609 1071 154 1400
KTKKTKKhans of Tarkir2014-09-26ExpansionHueyKTK2959 1111 880 583 165 2200
DDNDDNDuel Decks: Speed vs. Cunning2014-09-05SupplementalDDN164 66 46 20 4 280
V14V14From the Vault: Annihilation2014-08-22SupplementalV1415000 1500
CP1CP1Magic 2015 Clash Pack2014-07-19SupplementalCP16 10 5000
M15M15Magic 20152014-07-18CoreM153124 1177 924 638 165 2200
PREPREPrerelease Cards2014-07-10PromoPRE0000000
D15D15Duels of the Planeswalkers 20152014-07-09PromoD152000 200
FNMFNMFriday Night Magic Promos2014-07-01PromoFNM0000000
VMAVMAVintage Masters2014-06-16SupplementalVMA316 101 80 105 3009
CNSCNSConspiracy2014-06-06SupplementalCNS630 267 204 129 3000
MD1MD1Modern Event Deck 20142014-05-30SupplementalMD126 3 12 7 2 20
MPTMPTMagic ProTour2014-05-16PromoMPT0000000
JOUJOUJourney into Nyx2014-05-02ExpansionCountrymenJOU1815 660 660 385 11000
DDMDDMDuel Decks: Jace vs. Vraska2014-03-14SupplementalDDM176 74 48 20 4 300
BNGBNGBorn of the Gods2014-02-07ExpansionRomansBNG1815 660 660 385 11001
C13C13Commander 20132013-12-20SupplementalC132136 444 774 684 114 1200
THSTHSTheros2013-09-27ExpansionFriendsTHS2739 1111 660 583 165 2200
DDLDDLDuel Decks: Heroes vs. Monsters2013-09-06SupplementalDDL162 52 54 20 4 320
V13V13From the Vault: Twenty2013-08-23SupplementalV1320000 2000
M14M14Magic 20142013-07-19CoreM142739 1111 660 583 165 2200
D14D14Duels of the Planeswalkers 20142013-07-09PromoD140000000
MMAMMAModern Masters2013-06-07SupplementalMMA229 101 60 53 1500
DGMDGMDragon's Maze2013-05-03ExpansionSinkerDGM1716 770 440 385 12100
DDKDDKDuel Decks: Sorin vs. Tibalt2013-03-15SupplementalDDK160 52 60 20 4 240
GTCGTCGatecrash2013-02-01ExpansionLineGTC2729 1111 870 583 16500
CM1CM1Commander's Arsenal2012-11-02SupplementalCM128 2 1 17 800
RTRRTRReturn to Ravnica2012-10-05ExpansionHookRTR3014 1111 880 583 165 2750
DDJDDJDuel Decks: Izzet vs. Golgari2012-09-07SupplementalDDJ180 62 62 20 4 320
V12V12From the Vault: Realms2012-08-31SupplementalV1215000 1500
M13M13Magic 20132012-07-13CoreM132739 1111 660 583 165 2200
D13D13Duels of the Planeswalkers 20132012-07-09PromoD130000000
PC2PC2Planechase 20122012-06-01SupplementalPC2937 283 312 168 24 1500
AVRAVRAvacyn Restored2012-05-04ExpansionRollAVR2684 1111 660 583 165 1650
DDIDDIDuel Decks: Venser vs. Koth2012-03-30SupplementalDDI154 58 52 20 4 200
DKADKADark Ascension2012-02-03ExpansionRattleDKA1738 704 484 418 13200
PD3PD3Premium Deck Series: Graveborn2011-11-18SupplementalPD330 7 11 7 1 40
ISDISDInnistrad2011-09-30ExpansionShakeISD2640 1070 670 590 160 1500
DDHDDHDuel Decks: Ajani vs. Nicol Bolas2011-09-02SupplementalDDH400 120 180 50 10 400
V11V11From the Vault: Legends2011-08-26SupplementalV1115000 1500
M12M12Magic 20122011-07-15CoreM122490 1010 600 530 150 2000
CMDCMDCommander2011-06-17SupplementalCMD1908 462 690 552 84 1200
NPHNPHNew Phyrexia2011-05-13ExpansionActionNPH1750 600 600 350 100 1000
DDGDDGDuel Decks: Knights vs. Dragons2011-04-01SupplementalDDG405 135 150 50 10 600
MBSMBSMirrodin Besieged2011-02-04ExpansionCameraMBS1550 600 400 350 100 1000
ME4ME4Masters Edition IV2011-01-10SupplementalME4269 80 72 1050 120
PD2PD2Premium Deck Series: Fire and Lightning2010-11-19SupplementalPD234 9 15 60 40
SOMSOMScars of Mirrodin2010-10-01ExpansionLightsSOM2490 1010 600 530 150 2000
DDFDDFDuel Decks: Elspeth vs. Tezzeret2010-09-03SupplementalDDF474 180 174 60 12 480
V10V10From the Vault: Relics2010-08-27SupplementalV1015000 1500
M11M11Magic 20112010-07-16CoreM112490 1010 600 530 150 2000
ARCARCArchenemy2010-06-18ExpansionARC420 323 51 320 140
PPRPPRPromo set for Gatherer2010-06-04PromoPPR1700 170013
DPADPADuels of the Planeswalkers2010-06-04SupplementalDPA2 1 1000109
ROEROERise of the Eldrazi2010-04-23ExpansionProsperROE2232 900 540 477 135 1800
DDEDDEDuel Decks: Phyrexia vs. the Coalition2010-03-19SupplementalDDE145 45 58 20 4 180
WWKWWKWorldwake2010-02-05ExpansionLongWWK1305 540 360 315 9001
H09H09Premium Deck Series: Slivers2009-11-20SupplementalH0941 15 15 5 1 50
DDDDDDDuel Decks: Garruk vs. Liliana2009-10-30SupplementalDDD63 28 19 6 2 80
ZENZENZendikar2009-10-02ExpansionLiveZEN2421 909 540 477 135 3600
ME3ME3Masters Edition III2009-09-07SupplementalME3230 75 70 700 150
HOPHOPPlanechase2009-09-04SupplementalHOP374 260 49 370 280
V09V09From the Vault: Exiled2009-08-28SupplementalV0915000 1500
M10M10Magic 20102009-07-17CoreM102241 909 540 477 135 1800
ARBARBAlara Reborn2009-04-30ExpansionScissorsARB1305 540 360 315 9000
DDCDDCDuel Decks: Divine vs. Demonic2009-04-10SupplementalDDC62 20 24 8 2 80
CONCONConflux2009-02-06ExpansionPaperCON1305 540 360 315 9000
DD2DD2Duel Decks: Jace vs. Chandra2008-11-07SupplementalDD2125 51 42 12 4 160
ALAALAShards of Alara2008-10-03ExpansionRockALA2241 909 540 477 135 1800
ME2ME2Masters Edition II2008-09-22SupplementalME2245 80 80 800 50
DRBDRBFrom the Vault: Dragons2008-08-29SupplementalDRB1500 15000
EVEEVEEventide2008-07-25ExpansionDoughnutEVE1620 540 540 540000
SHMSHMShadowmoor2008-05-02ExpansionJellySHM3010 1210 800 8000 2000
MORMORMorningtide2008-02-01ExpansionButterMOR1500 600 400 500000
EVGEVGDuel Decks: Elves vs. Goblins2007-11-16SupplementalEVG62 24 22 80 80
LRWLRWLorwyn2007-10-12ExpansionPeanutLRW3010 1210 800 8000 2000
ME1ME1Masters Edition2007-09-10SupplementalME1195 60 60 600 150
10E10E10th Edition2007-07-13Core10E3830 1210 1210 12100 2000
FUTFUTFuture Sight2007-05-04ExpansionPopFUT1614 538 538 538006
PLCPLCPlanar Chaos2007-02-02ExpansionCracklePLC1485 540 495 450001
TSBTSBTimeshifted2006-10-07ExpansionTSB0000001089
TSPTSPTime Spiral2006-10-06ExpansionSnapTSP2709 1089 720 7200 1800
CSPCSPColdsnap2006-07-21ExpansionSplatCSP1395 540 495 360000
GPPGPPGrand Prix Promos2006-05-26PromoGPP0000000
DISDISDissension2006-05-05ExpansionDeleteDIS1620 540 540 540000
pHUKpHUKHachette UK Magic Encyclopedia Inserts2006-04-01PromoHUK00000060
GPTGPTGuildpact2006-02-03ExpansionAltGPT1485 495 495 495000
DCIDCIDCI Promo2006-01-01PromoDCI0000000
pMPSpMPSMagic Premiere Shop2006-01-01Promon/a0000000
RAVRAVRavnica: City of Guilds2005-10-07ExpansionControlRAV2754 990 792 7920 1800
9ED9ED9th Edition2005-07-29Core9ED3366 1117 1030 9990 2200
SOKSOKSaviors of Kamigawa2005-06-03ExpansionFireSOK1320 440 440 440000
BOKBOKBetrayers of Kamigawa2005-02-04ExpansionWindBOK165 55 55 55000
WC04-04WC04-04World Championship 2004: Gabriel Nassif2004-12-04Supplementaln/a00000020
WC04-03WC04-03World Championship 2004: Manuel Bevand2004-12-03Supplementaln/a00000019
WC04-02WC04-02World Championship 2004: Aeo Paquette2004-12-02Supplementaln/a00000016
WC04-01WC04-01World Championship 2004: Julien Nuijten2004-12-01Supplementaln/a00000020
UNHUNHUnhinged2004-11-19SupplementalUNH140 55 40 400 51
CHKCHKChampions of Kamigawa2004-10-01ExpansionEarthCHK2456 880 712 7040 1600
5DN5DNFifth Dawn2004-06-04ExpansionTomato5DN1320 440 440 440000
DSTDSTDarksteel2004-02-06ExpansionLettuceDST165 55 55 55000
WC03-04WC03-04World Championship 2003: Wolfgang Eder2003-12-04Supplementaln/a00000021
WC03-03WC03-03World Championship 2003: Peer Kröger2003-12-03Supplementaln/a00000026
WC03-02WC03-02World Championship 2003: Dave Humpherys2003-12-02Supplementaln/a00000022
WC03-01WC03-01World Championship 2003: Daniel Zink2003-12-01Supplementaln/a00000025
MRDMRDMirrodin2003-10-03ExpansionBaconMRD1530 550 440 4400 1000
8ED8ED8th Edition2003-07-28Core8ED2142 678 678 6660 1200
SCGSCGScourge2003-05-26ExpansionJackSCG858 330 264 264000
LGNLGNLegions2003-02-03ExpansionMoeLGN870 330 270 270000
WC02-04WC02-04World Championship 2002: Raphael Levy2002-12-04Supplementaln/a0000000
WC02-03WC02-03World Championship 2002: Brian Kibler2002-12-03Supplementaln/a0000000
WC02-02WC02-02World Championship 2002: Sim Han How2002-12-02Supplementaln/a0000000
WC02-01WC02-01World Championship 2002: Carlos Romão2002-12-01Supplementaln/a0000000
ONSONSOnslaught2002-10-07ExpansionMannyONS2100 660 660 6600 1200
JUDJUDJudgment2002-05-27ExpansionCarbonJUD858 330 264 264000
TORTORTorment2002-02-04ExpansionBoronTOR858 330 264 264000
WC01-04WC01-04World Championship 2001: Jan Tomcani2001-12-04Supplementaln/a0000000
WC01-03WC01-03World Championship 2001: Antoine Ruel2001-12-03Supplementaln/a0000001
WC01-02WC01-02World Championship 2001: Alex Borteh2001-12-02Supplementaln/a00000026
DKMDKMDeckmasters: Garfield vs. Finkel2001-12-01SupplementalDKM58 26 15 80 90
WC01-01WC01-01World Championship 2001: Tom van de Logt2001-12-01Supplementaln/a00000021
ODODOdyssey2001-10-01ExpansionArgonODY2100 660 660 6600 1200
TD0TD0Theme Deck Set2001-08-01SupplementalTD00000000
TD2TD2Duel Decks: Mirrodin Pure vs. New Phyrexia2001-07-01SupplementalTD20000000
SDCSDCSega Dreamcast2001-06-28SupplementalSDC00000010
APAPApocalypse2001-06-04ExpansionShanghaiAPC572 220 176 176000
7E7E7th Edition2001-04-11Core7ED1400 440 440 4400 801
GURUGURUGuru Program2001-02-27PromoGUR0000000
PSPSPlaneshift2001-02-05ExpansionHong KongPLS441 165 132 144000
MPRMPRMagic Player Rewards2001-01-01PromoMPR0000000
WC00-04WC00-04World Championship 2000: Nicolas Labarre2000-12-04Supplementaln/a00000021
WC00-03WC00-03World Championship 2000: Tom van de Logt2000-12-03Supplementaln/a00000018
WC00-02WC00-02World Championship 2000: Janosch Kühn2000-12-02Supplementaln/a00000017
BDBDBeatdown Box Set2000-12-01SupplementalBTD90 54 14 100 120
WC00-01WC00-01World Championship 2000: John Finkel2000-12-01Supplementaln/a00000016
ININInvasion2000-10-02ExpansionBeijingINV1053 330 333 3300 600
P4P4Starter 20002000-07-01SupplementalS0056 38 6 20 100
PRPRProphecy2000-06-05ExpansionDionysusPCY143 55 44 44000
NENENemesis2000-02-14ExpansionEuripidesNMS143 55 44 44000
WC99-04WC99-04World Championship 1999: Jakub Šlemr1999-12-04Supplementaln/a0000000
WC99-03WC99-03World Championship 1999: Matt Linde1999-12-03Supplementaln/a0000000
WC99-02WC99-02World Championship 1999: Mark Le Pine1999-12-02Supplementaln/a0000000
WC99-01WC99-01World Championship 1999: Kai Budde1999-12-01Supplementaln/a0000000
BRBRBattle Royale Box Set1999-11-12SupplementalBRB136 60 32 80 360
MMMMMercadian Masques1999-10-04ExpansionArchimedesMMQ355 110 110 1100 250
P3P3Starter 19991999-07-01SupplementalS99173 61 55 370 200
CGCGUrza's Destiny1999-06-07ExpansionChimichangaUDS143 55 44 44000
PKPKPortal Three Kingdoms1999-05-01SupplementalPTK180 55 55 550 150
6E6EClassic Sixth Edition1999-04-28Core6ED350 110 110 1100 200
GUGUUrza's Legacy1999-02-15ExpansionGuacamoleULG143 55 44 44000
WC98-04WC98-04World Championship 1998: Randy Buehler1998-12-04Supplementaln/a0000000
WC98-03WC98-03World Championship 1998: Brian Hacker1998-12-03Supplementaln/a0000000
WC98-02WC98-02World Championship 1998: Ben Rubin1998-12-02Supplementaln/a0000000
WC98-01WC98-01World Championship 1998: Brian Selden1998-12-01Supplementaln/a0000000
ATHATHAnthologies1998-11-01SupplementalATH85 43 25 100 70
UZUZUrza's Saga1998-10-12ExpansionArmadilloUSG362 114 110 1130 250
UGUGUnglued1998-08-17SupplementalUGL94 38 28 28000
EXEXExodus1998-06-15ExpansionGorgonzolaEXO143 55 44 44000
P2P2Portal Second Age1998-06-01SupplementalPO2165 70 45 350 150
STSTStronghold1998-03-02ExpansionRachimulotSTH143 55 44 44000
IDWIDWIDW Promo1998-01-02PromoIDW200 2000
WC97-04WC97-04World Championship 1997: Svend Geertsen1997-12-04Supplementaln/a0000000
WC97-03WC97-03World Championship 1997: Paul McCabe1997-12-03Supplementaln/a0000000
WC97-02WC97-02World Championship 1997: Janosch Kühn1997-12-02Supplementaln/a0000000
WC97-01WC97-01World Championship 1997: Jakub Šlemr1997-12-01Supplementaln/a0000000
TETETempest1997-10-13ExpansionBogavhatiTMP350 110 110 1100 200
WLWLWeatherlight1997-06-09ExpansionMochalatteWTH167 62 55 50000
POPOPortal1997-06-01SupplementalPOR228 95 58 550 200
ASTASTAstral1997-04-01SupplementalAST11 1100001
5E5EFifth Edition1997-03-24Core5ED449 165 132 1320 200
VIVIVisions1997-02-03ExpansionMirage Jr.VIS167 62 55 50000
VANVANVanguard1997-01-01SupplementalVAN00000084
PT96-08PT96-08Pro Tour 1996: Mark Justice1996-12-08Supplementaln/a0000000
PT96-07PT96-07Pro Tour 1996: Preston Poulter1996-12-07Supplementaln/a0000000
PT96-06PT96-06Pro Tour 1996: George Baxter1996-12-06Supplementaln/a0000000
PT96-05PT96-05Pro Tour 1996: Leon Lindback1996-12-05Supplementaln/a0000000
PT96-04PT96-04Pro Tour 1996: Shawn Regnier1996-12-04Supplementaln/a0000000
PT96-03PT96-03Pro Tour 1996: Bertrand Lestree1996-12-03Supplementaln/a0000000
PT96-02PT96-02Pro Tour 1996: Eric Tam1996-12-02Supplementaln/a0000000
PT96-01PT96-01Pro Tour 1996: Michael Loconto1996-12-01Supplementaln/a0000000
I2PI2PIntroductory Two-Player Set1996-11-01SupplementalI2P67 6700000
MIMIMirage1996-10-07ExpansionSosumi/MenagerieMIR350 110 110 1100 200
ARENAARENAArena League1996-08-02PromoARE00000096
ALALAlliances1996-06-10ExpansionQuackALL199 110 43 46000
HMHMHomelands1995-10-01ExpansionHomelandsHML280 142 54 84000
CHCHChronicles1995-07-01SupplementalCHR125 37 43 45000
IAIAIce Age1995-06-01ExpansionIce AgeICE48 19 1400 151
4E4EFourth Edition1995-04-01Core4ED379 121 121 1220 150
FEFEFallen Empires1994-11-01ExpansionFallen EmpiresFEM187 121 30 36000
DKDKThe Dark1994-08-01ExpansionThe DarkDRK119 40 44 35000
3E23E2Edgar (Summer Magic)1994-07-01CoreEdgar3E20000000
LELELegends1994-06-01ExpansionLegendsLEG310 75 114 121000
3E3ERevised Edition1994-04-01Core3ED306 75 95 1210 150
AQAQAntiquities1994-03-01ExpansionAntiquitiesATQ100 30 44 26000
PRMPRMPromotional1994-01-03PromoPRM2000 19 1017
ANANArabian Nights1993-12-17ExpansionArabian NightsARN92 41 19 32000
CEDCEDCollector's Edition1993-12-02SupplementalCED0000000
2U2UUnlimited Edition1993-12-01Core2ED302 75 95 1170 150
2E2EBeta Edition1993-10-01CoreLEB302 75 95 1170 150
1E1EAlpha Edition1993-08-05CoreLEA295 74 95 1160 100